createdAt,value
2019-03-23T00:00:50.315Z,57.40
2019-03-23T00:04:55.489Z,57.73
2019-03-23T00:09:00.962Z,57.45
2019-03-23T00:13:07.851Z,56.75
2019-03-23T00:17:13.130Z,57.30
2019-03-23T00:21:18.513Z,57.40
2019-03-23T00:25:23.788Z,58.28
2019-03-23T00:29:29.024Z,58.78
2019-03-23T00:33:37.078Z,59.60
2019-03-23T00:37:42.285Z,58.30
2019-03-23T00:41:47.399Z,57.90
2019-03-23T00:45:52.538Z,59.42
2019-03-23T00:49:57.735Z,58.15
2019-03-23T00:54:02.916Z,57.58
2019-03-23T00:58:08.084Z,88.10
2019-03-23T01:02:13.280Z,61.08
2019-03-23T01:06:18.459Z,60.88
2019-03-23T01:10:23.632Z,58.87
2019-03-23T01:14:29.753Z,65.00
2019-03-23T01:18:34.901Z,61.55
2019-03-23T01:22:40.087Z,59.10
2019-03-23T01:26:45.212Z,59.98
2019-03-23T01:30:50.442Z,59.53
2019-03-23T01:34:55.668Z,61.30
2019-03-23T01:39:00.738Z,61.53
2019-03-23T01:43:07.546Z,62.70
2019-03-23T01:47:12.642Z,60.95
2019-03-23T01:51:17.758Z,61.45
2019-03-23T01:55:22.886Z,62.38
2019-03-23T01:59:27.974Z,57.65
2019-03-23T02:03:33.098Z,58.45
2019-03-23T02:07:38.235Z,59.73
2019-03-23T02:11:43.410Z,60.67
2019-03-23T02:15:48.636Z,60.60
2019-03-23T02:19:54.081Z,60.63
2019-03-23T02:23:59.328Z,57.35
2019-03-23T02:28:04.610Z,56.55
2019-03-23T02:32:12.119Z,56.83
2019-03-23T02:36:17.266Z,57.48
2019-03-23T02:40:22.478Z,58.68
2019-03-23T02:44:27.631Z,59.48
2019-03-23T02:48:32.808Z,59.03
2019-03-23T02:52:38.143Z,59.00
2019-03-23T02:56:43.245Z,58.83
2019-03-23T03:00:48.376Z,55.85
2019-03-23T03:04:53.469Z,55.17
2019-03-23T03:08:58.632Z,56.55
2019-03-23T03:13:04.046Z,54.50
2019-03-23T03:17:09.148Z,57.70
2019-03-23T03:21:14.279Z,54.60
2019-03-23T03:25:19.403Z,55.67
2019-03-23T03:29:24.572Z,57.25
2019-03-23T03:33:29.719Z,58.95
2019-03-23T03:37:34.839Z,57.35
2019-03-23T03:41:40.040Z,61.58
2019-03-23T03:45:45.110Z,61.28
2019-03-23T03:49:50.235Z,59.05
2019-03-23T03:53:55.327Z,64.15
2019-03-23T03:58:00.496Z,64.35
2019-03-23T04:02:05.669Z,61.58
2019-03-23T04:06:10.845Z,57.67
2019-03-23T04:10:17.189Z,57.93
2019-03-23T04:14:22.314Z,58.73
2019-03-23T04:18:27.469Z,57.43
2019-03-23T04:22:32.758Z,57.48
2019-03-23T04:26:39.357Z,58.73
2019-03-23T04:30:44.692Z,59.45
2019-03-23T04:34:49.869Z,59.35
2019-03-23T04:38:55.012Z,59.00
2019-03-23T04:43:00.106Z,60.33
2019-03-23T04:47:06.219Z,61.20
2019-03-23T04:51:11.455Z,61.10
2019-03-23T04:55:16.627Z,63.85
2019-03-23T04:59:21.806Z,61.77
2019-03-23T05:03:27.019Z,59.18
2019-03-23T05:07:32.115Z,59.05
2019-03-23T05:11:37.237Z,59.88
2019-03-23T05:15:42.352Z,59.40
2019-03-23T05:19:47.522Z,60.17
2019-03-23T05:23:52.595Z,62.50
2019-03-23T05:27:57.747Z,59.38
2019-03-23T05:32:02.858Z,60.78
2019-03-23T05:36:07.975Z,65.12
2019-03-23T05:40:13.061Z,61.77
2019-03-23T05:44:20.024Z,62.67
2019-03-23T05:48:26.129Z,60.40
2019-03-23T05:52:36.295Z,60.23
2019-03-23T05:56:42.070Z,58.98
2019-03-23T06:00:47.720Z,58.70
2019-03-23T06:04:52.858Z,56.35
2019-03-23T06:08:58.002Z,54.50
2019-03-23T06:13:04.868Z,63.65
2019-03-23T06:17:13.055Z,54.85
2019-03-23T06:21:19.174Z,52.75
2019-03-23T06:25:26.378Z,55.08
2019-03-23T06:29:32.426Z,52.35
2019-03-23T06:33:43.577Z,51.42
2019-03-23T06:37:49.097Z,50.10
2019-03-23T06:41:54.784Z,50.50
2019-03-23T06:45:59.965Z,53.63
2019-03-23T06:50:06.311Z,51.53
2019-03-23T06:54:11.876Z,51.02
2019-03-23T06:58:19.435Z,48.15
2019-03-23T07:02:25.070Z,50.00
2019-03-23T07:06:30.196Z,47.25
2019-03-23T07:10:35.302Z,47.48
2019-03-23T07:14:41.415Z,45.40
2019-03-23T07:18:47.076Z,44.53
2019-03-23T07:22:57.968Z,44.27
2019-03-23T07:27:03.895Z,45.25
2019-03-23T07:31:09.807Z,44.65
2019-03-23T07:35:21.120Z,45.23
2019-03-23T07:39:28.207Z,43.70
2019-03-23T07:43:33.761Z,42.25
2019-03-23T07:47:39.762Z,41.18
2019-03-23T07:51:45.210Z,40.78
2019-03-23T07:55:50.515Z,40.70
2019-03-23T07:59:55.674Z,38.73
2019-03-23T08:04:00.807Z,37.95
2019-03-23T08:08:06.895Z,34.83
2019-03-23T08:12:12.127Z,34.45
2019-03-23T08:16:17.612Z,29.23
2019-03-23T08:20:22.690Z,30.60
2019-03-23T08:24:28.897Z,31.20
2019-03-23T08:28:34.211Z,29.60
2019-03-23T08:32:39.483Z,30.92
2019-03-23T08:36:44.584Z,33.23
2019-03-23T08:40:49.825Z,32.10
2019-03-23T08:44:55.073Z,33.58
2019-03-23T08:49:01.378Z,34.90
2019-03-23T08:53:07.727Z,35.35
2019-03-23T08:57:12.864Z,34.03
